sensor_id;sensor_type;location;lat;lon;timestamp;temperature;humidity
18506;DHT22;9382;53.242;10.438;2023-05-10T00:00:27;13.80;99.90
18506;DHT22;9382;53.242;10.438;2023-05-10T00:02:54;13.70;99.90
18506;DHT22;9382;53.242;10.438;2023-05-10T00:05:21;13.70;99.90
18506;DHT22;9382;53.242;10.438;2023-05-10T00:07:47;13.70;99.90
18506;DHT22;9382;53.242;10.438;2023-05-10T00:10:14;13.70;99.90
18506;DHT22;9382;53.242;10.438;2023-05-10T00:12:42;13.70;99.90
18506;DHT22;9382;53.242;10.438;2023-05-10T00:15:09;13.60;99.90
18506;DHT22;9382;53.242;10.438;2023-05-10T00:17:37;13.60;99.90
18506;DHT22;9382;53.242;10.438;2023-05-10T00:20:05;13.60;99.90
18506;DHT22;9382;53.242;10.438;2023-05-10T00:22:32;13.50;99.90
18506;DHT22;9382;53.242;10.438;2023-05-10T00:24:58;13.50;99.90
18506;DHT22;9382;53.242;10.438;2023-05-10T00:27:25;13.50;99.90
18506;DHT22;9382;53.242;10.438;2023-05-10T00:29:53;13.50;99.90
18506;DHT22;9382;53.242;10.438;2023-05-10T00:32:20;13.50;99.90
18506;DHT22;9382;53.242;10.438;2023-05-10T00:34:47;13.40;99.90
18506;DHT22;9382;53.242;10.438;2023-05-10T00:37:13;13.40;99.90
18506;DHT22;9382;53.242;10.438;2023-05-10T00:39:40;13.40;99.90
18506;DHT22;9382;53.242;10.438;2023-05-10T00:42:06;13.30;99.90
18506;DHT22;9382;53.242;10.438;2023-05-10T00:44:33;13.30;99.90
18506;DHT22;9382;53.242;10.438;2023-05-10T00:47:01;13.30;99.90
18506;DHT22;9382;53.242;10.438;2023-05-10T00:49:28;13.30;99.90
18506;DHT22;9382;53.242;10.438;2023-05-10T00:51:55;13.20;99.90
18506;DHT22;9382;53.242;10.438;2023-05-10T00:54:22;13.20;99.90
18506;DHT22;9382;53.242;10.438;2023-05-10T00:56:49;13.20;99.90
18506;DHT22;9382;53.242;10.438;2023-05-10T00:59:16;13.10;99.90
18506;DHT22;9382;53.242;10.438;2023-05-10T01:01:43;13.10;99.90
18506;DHT22;9382;53.242;10.438;2023-05-10T01:04:12;13.10;99.90
18506;DHT22;9382;53.242;10.438;2023-05-10T01:06:39;13.00;99.90
18506;DHT22;9382;53.242;10.438;2023-05-10T01:09:06;13.00;99.90
18506;DHT22;9382;53.242;10.438;2023-05-10T01:11:33;13.00;99.90
18506;DHT22;9382;53.242;10.438;2023-05-10T01:14:01;12.90;99.90
18506;DHT22;9382;53.242;10.438;2023-05-10T01:16:29;12.90;99.90
18506;DHT22;9382;53.242;10.438;2023-05-10T01:18:58;12.90;99.90
18506;DHT22;9382;53.242;10.438;2023-05-10T01:21:33;12.80;99.90
18506;DHT22;9382;53.242;10.438;2023-05-10T01:24:17;12.80;99.90
18506;DHT22;9382;53.242;10.438;2023-05-10T01:27:14;12.80;99.90
18506;DHT22;9382;53.242;10.438;2023-05-10T01:30:05;12.80;99.90
18506;DHT22;9382;53.242;10.438;2023-05-10T01:32:41;12.80;99.90
18506;DHT22;9382;53.242;10.438;2023-05-10T01:35:16;12.80;99.90
18506;DHT22;9382;53.242;10.438;2023-05-10T01:37:47;12.80;99.90
18506;DHT22;9382;53.242;10.438;2023-05-10T01:40:21;12.70;99.90
18506;DHT22;9382;53.242;10.438;2023-05-10T01:42:53;12.70;99.90
18506;DHT22;9382;53.242;10.438;2023-05-10T01:45:27;12.70;99.90
18506;DHT22;9382;53.242;10.438;2023-05-10T01:48:03;12.70;99.90
18506;DHT22;9382;53.242;10.438;2023-05-10T01:50:32;12.70;99.90
18506;DHT22;9382;53.242;10.438;2023-05-10T01:53:01;12.60;99.90
18506;DHT22;9382;53.242;10.438;2023-05-10T01:55:32;12.60;99.90
18506;DHT22;9382;53.242;10.438;2023-05-10T01:58:03;12.60;99.90
18506;DHT22;9382;53.242;10.438;2023-05-10T02:00:31;12.50;99.90
18506;DHT22;9382;53.242;10.438;2023-05-10T02:03:01;12.50;99.90
18506;DHT22;9382;53.242;10.438;2023-05-10T02:05:31;12.50;99.90
18506;DHT22;9382;53.242;10.438;2023-05-10T02:07:59;12.50;99.90
18506;DHT22;9382;53.242;10.438;2023-05-10T02:10:28;12.40;99.90
18506;DHT22;9382;53.242;10.438;2023-05-10T02:12:58;12.40;99.90
18506;DHT22;9382;53.242;10.438;2023-05-10T02:15:26;12.40;99.90
18506;DHT22;9382;53.242;10.438;2023-05-10T02:17:55;12.30;99.90
18506;DHT22;9382;53.242;10.438;2023-05-10T02:20:24;12.30;99.90
18506;DHT22;9382;53.242;10.438;2023-05-10T02:22:54;12.20;99.90
18506;DHT22;9382;53.242;10.438;2023-05-10T02:25:22;12.20;99.90
18506;DHT22;9382;53.242;10.438;2023-05-10T02:27:50;12.20;99.90
18506;DHT22;9382;53.242;10.438;2023-05-10T02:30:18;12.20;99.90
18506;DHT22;9382;53.242;10.438;2023-05-10T02:32:45;12.10;99.90
18506;DHT22;9382;53.242;10.438;2023-05-10T02:35:12;12.10;99.90
18506;DHT22;9382;53.242;10.438;2023-05-10T02:37:42;12.10;99.90
18506;DHT22;9382;53.242;10.438;2023-05-10T02:40:10;12.10;99.90
18506;DHT22;9382;53.242;10.438;2023-05-10T02:42:42;12.00;99.90
18506;DHT22;9382;53.242;10.438;2023-05-10T02:45:13;12.00;99.90
18506;DHT22;9382;53.242;10.438;2023-05-10T02:47:41;12.00;99.90
18506;DHT22;9382;53.242;10.438;2023-05-10T02:50:09;12.00;99.90
18506;DHT22;9382;53.242;10.438;2023-05-10T02:52:40;12.00;99.90
18506;DHT22;9382;53.242;10.438;2023-05-10T02:55:11;11.90;99.90
18506;DHT22;9382;53.242;10.438;2023-05-10T02:57:41;11.90;99.90
18506;DHT22;9382;53.242;10.438;2023-05-10T03:00:09;11.80;99.90
18506;DHT22;9382;53.242;10.438;2023-05-10T03:02:35;11.90;99.90
18506;DHT22;9382;53.242;10.438;2023-05-10T03:05:24;11.80;99.90
18506;DHT22;9382;53.242;10.438;2023-05-10T03:07:52;11.80;99.90
18506;DHT22;9382;53.242;10.438;2023-05-10T03:10:24;11.80;99.90
18506;DHT22;9382;53.242;10.438;2023-05-10T03:13:06;11.80;99.90
18506;DHT22;9382;53.242;10.438;2023-05-10T03:15:54;11.80;99.90
18506;DHT22;9382;53.242;10.438;2023-05-10T03:18:29;11.80;99.90
18506;DHT22;9382;53.242;10.438;2023-05-10T03:21:04;11.80;99.90
18506;DHT22;9382;53.242;10.438;2023-05-10T03:23:41;11.80;99.90
18506;DHT22;9382;53.242;10.438;2023-05-10T03:26:15;11.80;99.90
18506;DHT22;9382;53.242;10.438;2023-05-10T03:28:57;11.80;99.90
18506;DHT22;9382;53.242;10.438;2023-05-10T03:31:25;11.80;99.90
18506;DHT22;9382;53.242;10.438;2023-05-10T03:33:52;11.80;99.90
18506;DHT22;9382;53.242;10.438;2023-05-10T03:36:19;11.80;99.90
18506;DHT22;9382;53.242;10.438;2023-05-10T03:38:49;11.80;99.90
18506;DHT22;9382;53.242;10.438;2023-05-10T03:41:19;11.80;99.90
18506;DHT22;9382;53.242;10.438;2023-05-10T03:43:52;11.80;99.90
18506;DHT22;9382;53.242;10.438;2023-05-10T03:46:21;11.80;99.90
18506;DHT22;9382;53.242;10.438;2023-05-10T03:48:47;11.80;99.90
18506;DHT22;9382;53.242;10.438;2023-05-10T03:51:14;11.80;99.90
18506;DHT22;9382;53.242;10.438;2023-05-10T03:53:41;11.80;99.90
18506;DHT22;9382;53.242;10.438;2023-05-10T03:56:11;11.80;99.90
18506;DHT22;9382;53.242;10.438;2023-05-10T03:58:39;11.80;99.90
18506;DHT22;9382;53.242;10.438;2023-05-10T04:01:06;11.80;99.90
18506;DHT22;9382;53.242;10.438;2023-05-10T04:03:33;11.80;99.90
18506;DHT22;9382;53.242;10.438;2023-05-10T04:06:01;11.80;99.90
18506;DHT22;9382;53.242;10.438;2023-05-10T04:08:28;11.80;99.90
18506;DHT22;9382;53.242;10.438;2023-05-10T04:10:55;11.80;99.90
18506;DHT22;9382;53.242;10.438;2023-05-10T04:13:30;11.80;99.90
18506;DHT22;9382;53.242;10.438;2023-05-10T04:15:58;11.80;99.90
18506;DHT22;9382;53.242;10.438;2023-05-10T04:18:25;11.80;99.90
18506;DHT22;9382;53.242;10.438;2023-05-10T04:20:52;11.80;99.90
18506;DHT22;9382;53.242;10.438;2023-05-10T04:23:18;11.80;99.90
18506;DHT22;9382;53.242;10.438;2023-05-10T04:25:45;11.80;99.90
18506;DHT22;9382;53.242;10.438;2023-05-10T04:28:12;11.80;99.90
18506;DHT22;9382;53.242;10.438;2023-05-10T04:30:38;11.80;99.90
18506;DHT22;9382;53.242;10.438;2023-05-10T04:33:07;11.80;99.90
18506;DHT22;9382;53.242;10.438;2023-05-10T04:35:34;11.80;99.90
18506;DHT22;9382;53.242;10.438;2023-05-10T04:38:00;11.90;99.90
18506;DHT22;9382;53.242;10.438;2023-05-10T04:40:27;11.90;99.90
18506;DHT22;9382;53.242;10.438;2023-05-10T04:42:54;11.90;99.90
18506;DHT22;9382;53.242;10.438;2023-05-10T04:45:21;11.90;99.90
18506;DHT22;9382;53.242;10.438;2023-05-10T04:47:47;11.90;99.90
18506;DHT22;9382;53.242;10.438;2023-05-10T04:50:15;12.00;99.90
18506;DHT22;9382;53.242;10.438;2023-05-10T04:52:42;12.00;99.90
18506;DHT22;9382;53.242;10.438;2023-05-10T04:55:09;12.00;99.90
18506;DHT22;9382;53.242;10.438;2023-05-10T04:57:35;12.00;99.90
18506;DHT22;9382;53.242;10.438;2023-05-10T05:00:03;12.10;99.90
18506;DHT22;9382;53.242;10.438;2023-05-10T05:02:30;12.20;99.90
18506;DHT22;9382;53.242;10.438;2023-05-10T05:04:56;12.30;99.90
18506;DHT22;9382;53.242;10.438;2023-05-10T05:07:25;12.40;99.90
18506;DHT22;9382;53.242;10.438;2023-05-10T05:09:51;12.50;99.90
18506;DHT22;9382;53.242;10.438;2023-05-10T05:12:18;12.50;99.90
18506;DHT22;9382;53.242;10.438;2023-05-10T05:14:45;12.60;99.90
18506;DHT22;9382;53.242;10.438;2023-05-10T05:17:11;12.70;99.90
18506;DHT22;9382;53.242;10.438;2023-05-10T05:19:39;12.80;99.90
18506;DHT22;9382;53.242;10.438;2023-05-10T05:22:06;12.80;99.90
18506;DHT22;9382;53.242;10.438;2023-05-10T05:24:36;12.90;99.90
18506;DHT22;9382;53.242;10.438;2023-05-10T05:27:03;12.90;99.90
18506;DHT22;9382;53.242;10.438;2023-05-10T05:29:30;13.00;99.90
18506;DHT22;9382;53.242;10.438;2023-05-10T05:31:56;13.00;99.90
18506;DHT22;9382;53.242;10.438;2023-05-10T05:34:23;13.10;99.90
18506;DHT22;9382;53.242;10.438;2023-05-10T05:36:50;13.20;99.90
18506;DHT22;9382;53.242;10.438;2023-05-10T05:39:17;13.20;99.90
18506;DHT22;9382;53.242;10.438;2023-05-10T05:41:45;13.30;99.90
18506;DHT22;9382;53.242;10.438;2023-05-10T05:44:12;13.30;99.90
18506;DHT22;9382;53.242;10.438;2023-05-10T05:46:39;13.40;99.90
18506;DHT22;9382;53.242;10.438;2023-05-10T05:49:05;13.40;99.90
18506;DHT22;9382;53.242;10.438;2023-05-10T05:51:32;13.50;99.90
18506;DHT22;9382;53.242;10.438;2023-05-10T05:54:00;13.60;99.90
18506;DHT22;9382;53.242;10.438;2023-05-10T05:56:27;13.70;99.90
18506;DHT22;9382;53.242;10.438;2023-05-10T05:58:55;13.80;99.90
18506;DHT22;9382;53.242;10.438;2023-05-10T06:01:21;13.90;99.90
18506;DHT22;9382;53.242;10.438;2023-05-10T06:03:48;14.00;99.90
18506;DHT22;9382;53.242;10.438;2023-05-10T06:06:15;14.10;99.90
18506;DHT22;9382;53.242;10.438;2023-05-10T06:08:41;14.20;99.90
18506;DHT22;9382;53.242;10.438;2023-05-10T06:11:08;14.30;99.90
18506;DHT22;9382;53.242;10.438;2023-05-10T06:13:34;14.30;99.90
18506;DHT22;9382;53.242;10.438;2023-05-10T06:16:03;14.30;99.90
18506;DHT22;9382;53.242;10.438;2023-05-10T06:18:30;14.30;99.90
18506;DHT22;9382;53.242;10.438;2023-05-10T06:20:56;14.40;99.90
18506;DHT22;9382;53.242;10.438;2023-05-10T06:23:23;14.50;99.90
18506;DHT22;9382;53.242;10.438;2023-05-10T06:25:51;14.70;99.90
18506;DHT22;9382;53.242;10.438;2023-05-10T06:28:17;14.90;99.90
18506;DHT22;9382;53.242;10.438;2023-05-10T06:30:44;15.00;99.90
18506;DHT22;9382;53.242;10.438;2023-05-10T06:33:12;15.20;99.90
18506;DHT22;9382;53.242;10.438;2023-05-10T06:35:39;15.20;99.90
18506;DHT22;9382;53.242;10.438;2023-05-10T06:38:05;15.20;99.90
18506;DHT22;9382;53.242;10.438;2023-05-10T06:40:32;15.20;99.90
18506;DHT22;9382;53.242;10.438;2023-05-10T06:42:59;15.20;99.90
18506;DHT22;9382;53.242;10.438;2023-05-10T06:45:25;15.20;99.90
18506;DHT22;9382;53.242;10.438;2023-05-10T06:47:52;15.20;99.90
18506;DHT22;9382;53.242;10.438;2023-05-10T06:50:20;15.20;99.90
18506;DHT22;9382;53.242;10.438;2023-05-10T06:52:46;15.30;99.90
18506;DHT22;9382;53.242;10.438;2023-05-10T06:55:13;15.30;99.90
18506;DHT22;9382;53.242;10.438;2023-05-10T06:57:40;15.30;99.90
18506;DHT22;9382;53.242;10.438;2023-05-10T07:00:07;15.40;99.90
18506;DHT22;9382;53.242;10.438;2023-05-10T07:02:34;15.40;99.90
18506;DHT22;9382;53.242;10.438;2023-05-10T07:05:01;15.50;99.90
18506;DHT22;9382;53.242;10.438;2023-05-10T07:07:30;15.50;99.90
18506;DHT22;9382;53.242;10.438;2023-05-10T07:09:56;15.70;99.90
18506;DHT22;9382;53.242;10.438;2023-05-10T07:12:24;15.70;99.90
18506;DHT22;9382;53.242;10.438;2023-05-10T07:14:50;15.80;99.90
18506;DHT22;9382;53.242;10.438;2023-05-10T07:17:17;15.90;99.90
18506;DHT22;9382;53.242;10.438;2023-05-10T07:19:44;16.00;99.90
18506;DHT22;9382;53.242;10.438;2023-05-10T07:22:11;16.10;99.90
18506;DHT22;9382;53.242;10.438;2023-05-10T07:24:39;16.30;99.90
18506;DHT22;9382;53.242;10.438;2023-05-10T07:27:05;16.40;99.90
18506;DHT22;9382;53.242;10.438;2023-05-10T07:29:32;16.50;99.90
18506;DHT22;9382;53.242;10.438;2023-05-10T07:31:59;16.70;99.90
18506;DHT22;9382;53.242;10.438;2023-05-10T07:34:26;16.70;99.90
18506;DHT22;9382;53.242;10.438;2023-05-10T07:36:53;16.70;99.90
18506;DHT22;9382;53.242;10.438;2023-05-10T07:39:20;16.70;99.90
18506;DHT22;9382;53.242;10.438;2023-05-10T07:41:48;16.70;99.90
18506;DHT22;9382;53.242;10.438;2023-05-10T07:44:14;16.60;99.90
18506;DHT22;9382;53.242;10.438;2023-05-10T07:46:43;16.60;99.90
18506;DHT22;9382;53.242;10.438;2023-05-10T07:49:10;16.60;99.90
18506;DHT22;9382;53.242;10.438;2023-05-10T07:51:37;16.60;99.90
18506;DHT22;9382;53.242;10.438;2023-05-10T07:54:03;16.70;99.90
18506;DHT22;9382;53.242;10.438;2023-05-10T07:56:31;16.70;99.90
18506;DHT22;9382;53.242;10.438;2023-05-10T07:58:59;16.80;99.90
18506;DHT22;9382;53.242;10.438;2023-05-10T08:01:26;16.90;99.90
18506;DHT22;9382;53.242;10.438;2023-05-10T08:03:56;17.00;99.90
18506;DHT22;9382;53.242;10.438;2023-05-10T08:06:22;17.20;99.90
18506;DHT22;9382;53.242;10.438;2023-05-10T08:08:51;17.30;99.90
18506;DHT22;9382;53.242;10.438;2023-05-10T08:11:19;17.40;99.90
18506;DHT22;9382;53.242;10.438;2023-05-10T08:13:47;17.50;99.90
18506;DHT22;9382;53.242;10.438;2023-05-10T08:16:16;17.60;99.90
18506;DHT22;9382;53.242;10.438;2023-05-10T08:18:44;17.90;99.90
18506;DHT22;9382;53.242;10.438;2023-05-10T08:21:12;18.10;99.90
18506;DHT22;9382;53.242;10.438;2023-05-10T08:23:39;18.20;99.90
18506;DHT22;9382;53.242;10.438;2023-05-10T08:26:06;18.10;99.90
18506;DHT22;9382;53.242;10.438;2023-05-10T08:28:33;18.10;99.90
18506;DHT22;9382;53.242;10.438;2023-05-10T08:30:59;18.10;99.90
18506;DHT22;9382;53.242;10.438;2023-05-10T08:33:27;17.90;99.90
18506;DHT22;9382;53.242;10.438;2023-05-10T08:35:54;17.80;99.90
18506;DHT22;9382;53.242;10.438;2023-05-10T08:38:20;17.80;99.90
18506;DHT22;9382;53.242;10.438;2023-05-10T08:40:49;17.60;99.90
18506;DHT22;9382;53.242;10.438;2023-05-10T08:43:16;17.30;99.90
18506;DHT22;9382;53.242;10.438;2023-05-10T08:45:44;17.00;99.90
18506;DHT22;9382;53.242;10.438;2023-05-10T08:48:12;16.70;99.90
18506;DHT22;9382;53.242;10.438;2023-05-10T08:50:41;16.70;99.90
18506;DHT22;9382;53.242;10.438;2023-05-10T08:53:10;16.60;99.90
18506;DHT22;9382;53.242;10.438;2023-05-10T08:55:38;16.60;99.90
18506;DHT22;9382;53.242;10.438;2023-05-10T08:58:06;16.60;99.90
18506;DHT22;9382;53.242;10.438;2023-05-10T09:00:33;16.60;99.90
18506;DHT22;9382;53.242;10.438;2023-05-10T09:03:01;16.70;99.90
18506;DHT22;9382;53.242;10.438;2023-05-10T09:05:27;16.60;99.90
18506;DHT22;9382;53.242;10.438;2023-05-10T09:07:55;16.70;99.90
18506;DHT22;9382;53.242;10.438;2023-05-10T09:10:23;16.80;99.90
18506;DHT22;9382;53.242;10.438;2023-05-10T09:12:51;16.70;99.90
18506;DHT22;9382;53.242;10.438;2023-05-10T09:15:18;16.70;99.90
18506;DHT22;9382;53.242;10.438;2023-05-10T09:17:46;16.70;99.90
18506;DHT22;9382;53.242;10.438;2023-05-10T09:20:13;16.70;99.90
18506;DHT22;9382;53.242;10.438;2023-05-10T09:22:40;16.70;99.90
18506;DHT22;9382;53.242;10.438;2023-05-10T09:25:09;16.70;99.90
18506;DHT22;9382;53.242;10.438;2023-05-10T09:27:37;16.80;99.90
18506;DHT22;9382;53.242;10.438;2023-05-10T09:30:05;16.90;99.90
18506;DHT22;9382;53.242;10.438;2023-05-10T09:32:39;17.00;99.90
18506;DHT22;9382;53.242;10.438;2023-05-10T09:35:07;17.10;99.90
18506;DHT22;9382;53.242;10.438;2023-05-10T09:37:34;17.00;99.90
18506;DHT22;9382;53.242;10.438;2023-05-10T09:40:04;16.80;99.90
18506;DHT22;9382;53.242;10.438;2023-05-10T09:42:33;16.70;99.90
18506;DHT22;9382;53.242;10.438;2023-05-10T09:45:01;16.60;99.90
18506;DHT22;9382;53.242;10.438;2023-05-10T09:47:28;16.60;99.90
18506;DHT22;9382;53.242;10.438;2023-05-10T09:49:57;16.60;99.90
18506;DHT22;9382;53.242;10.438;2023-05-10T09:52:29;16.70;99.90
18506;DHT22;9382;53.242;10.438;2023-05-10T09:54:55;16.60;99.90
18506;DHT22;9382;53.242;10.438;2023-05-10T09:57:24;16.70;99.90
18506;DHT22;9382;53.242;10.438;2023-05-10T09:59:52;16.60;99.90
18506;DHT22;9382;53.242;10.438;2023-05-10T10:02:19;16.60;99.90
18506;DHT22;9382;53.242;10.438;2023-05-10T10:04:49;16.70;99.90
18506;DHT22;9382;53.242;10.438;2023-05-10T10:07:22;16.80;99.90
18506;DHT22;9382;53.242;10.438;2023-05-10T10:09:49;16.70;99.90
18506;DHT22;9382;53.242;10.438;2023-05-10T10:12:16;16.70;99.90
18506;DHT22;9382;53.242;10.438;2023-05-10T10:14:43;16.60;99.90
18506;DHT22;9382;53.242;10.438;2023-05-10T10:17:12;16.40;99.90
18506;DHT22;9382;53.242;10.438;2023-05-10T10:19:39;16.30;99.90
18506;DHT22;9382;53.242;10.438;2023-05-10T10:22:06;16.20;99.90
18506;DHT22;9382;53.242;10.438;2023-05-10T10:24:33;16.00;99.90
18506;DHT22;9382;53.242;10.438;2023-05-10T10:27:07;15.80;99.90
18506;DHT22;9382;53.242;10.438;2023-05-10T10:29:41;15.60;99.90
18506;DHT22;9382;53.242;10.438;2023-05-10T10:32:21;15.40;99.90
18506;DHT22;9382;53.242;10.438;2023-05-10T10:34:51;15.30;99.90
18506;DHT22;9382;53.242;10.438;2023-05-10T10:37:18;15.30;99.90
18506;DHT22;9382;53.242;10.438;2023-05-10T10:39:44;15.10;99.90
18506;DHT22;9382;53.242;10.438;2023-05-10T10:42:14;15.00;99.90
18506;DHT22;9382;53.242;10.438;2023-05-10T10:44:40;15.00;99.90
18506;DHT22;9382;53.242;10.438;2023-05-10T10:47:23;14.80;99.90
18506;DHT22;9382;53.242;10.438;2023-05-10T10:50:02;14.70;99.90
18506;DHT22;9382;53.242;10.438;2023-05-10T10:52:32;14.60;99.90
18506;DHT22;9382;53.242;10.438;2023-05-10T10:55:01;14.60;99.90
18506;DHT22;9382;53.242;10.438;2023-05-10T10:57:31;14.40;99.90
18506;DHT22;9382;53.242;10.438;2023-05-10T11:00:17;14.30;99.90
18506;DHT22;9382;53.242;10.438;2023-05-10T11:02:47;14.20;99.90
18506;DHT22;9382;53.242;10.438;2023-05-10T11:05:26;14.20;99.90
18506;DHT22;9382;53.242;10.438;2023-05-10T11:08:00;14.20;99.90
18506;DHT22;9382;53.242;10.438;2023-05-10T11:10:32;14.40;99.90
18506;DHT22;9382;53.242;10.438;2023-05-10T11:13:00;14.50;99.90
18506;DHT22;9382;53.242;10.438;2023-05-10T11:15:31;14.60;99.90
18506;DHT22;9382;53.242;10.438;2023-05-10T11:18:00;14.70;99.90
18506;DHT22;9382;53.242;10.438;2023-05-10T11:20:42;14.80;99.90
18506;DHT22;9382;53.242;10.438;2023-05-10T11:23:13;14.90;99.90
18506;DHT22;9382;53.242;10.438;2023-05-10T11:25:42;15.00;99.90
18506;DHT22;9382;53.242;10.438;2023-05-10T11:28:10;15.00;99.90
18506;DHT22;9382;53.242;10.438;2023-05-10T11:30:38;15.00;99.90
18506;DHT22;9382;53.242;10.438;2023-05-10T11:33:07;15.00;99.90
18506;DHT22;9382;53.242;10.438;2023-05-10T11:35:37;15.00;99.90
18506;DHT22;9382;53.242;10.438;2023-05-10T11:38:06;15.20;99.90
18506;DHT22;9382;53.242;10.438;2023-05-10T11:40:32;15.30;99.90
18506;DHT22;9382;53.242;10.438;2023-05-10T11:42:59;15.50;99.90
18506;DHT22;9382;53.242;10.438;2023-05-10T11:45:26;15.40;99.90
18506;DHT22;9382;53.242;10.438;2023-05-10T11:47:53;15.60;99.90
18506;DHT22;9382;53.242;10.438;2023-05-10T11:50:21;15.70;99.90
18506;DHT22;9382;53.242;10.438;2023-05-10T11:52:51;15.70;99.90
18506;DHT22;9382;53.242;10.438;2023-05-10T11:55:17;15.80;99.90
18506;DHT22;9382;53.242;10.438;2023-05-10T11:57:44;15.80;99.90
18506;DHT22;9382;53.242;10.438;2023-05-10T12:00:12;15.90;99.90
18506;DHT22;9382;53.242;10.438;2023-05-10T12:02:39;15.80;99.90
18506;DHT22;9382;53.242;10.438;2023-05-10T12:05:06;15.90;99.90
18506;DHT22;9382;53.242;10.438;2023-05-10T12:07:35;15.90;99.90
18506;DHT22;9382;53.242;10.438;2023-05-10T12:10:06;16.00;99.90
18506;DHT22;9382;53.242;10.438;2023-05-10T12:12:37;16.00;99.90
18506;DHT22;9382;53.242;10.438;2023-05-10T12:15:05;16.00;99.90
18506;DHT22;9382;53.242;10.438;2023-05-10T12:17:37;16.10;99.90
18506;DHT22;9382;53.242;10.438;2023-05-10T12:20:14;16.20;99.90
18506;DHT22;9382;53.242;10.438;2023-05-10T12:22:44;16.30;99.90
18506;DHT22;9382;53.242;10.438;2023-05-10T12:25:11;16.40;99.90
18506;DHT22;9382;53.242;10.438;2023-05-10T12:27:37;16.30;99.90
18506;DHT22;9382;53.242;10.438;2023-05-10T12:30:05;16.30;99.90
18506;DHT22;9382;53.242;10.438;2023-05-10T12:32:39;16.30;99.90
18506;DHT22;9382;53.242;10.438;2023-05-10T12:35:07;16.30;99.90
18506;DHT22;9382;53.242;10.438;2023-05-10T12:37:34;16.30;99.90
18506;DHT22;9382;53.242;10.438;2023-05-10T12:40:08;16.10;99.90
18506;DHT22;9382;53.242;10.438;2023-05-10T12:42:35;16.00;99.90
18506;DHT22;9382;53.242;10.438;2023-05-10T12:45:02;15.90;99.90
18506;DHT22;9382;53.242;10.438;2023-05-10T12:47:29;16.00;99.90
18506;DHT22;9382;53.242;10.438;2023-05-10T12:49:56;16.00;99.90
18506;DHT22;9382;53.242;10.438;2023-05-10T12:52:22;16.20;99.90
18506;DHT22;9382;53.242;10.438;2023-05-10T12:54:49;16.30;99.90
18506;DHT22;9382;53.242;10.438;2023-05-10T12:57:17;16.30;99.90
18506;DHT22;9382;53.242;10.438;2023-05-10T12:59:46;16.50;99.90
18506;DHT22;9382;53.242;10.438;2023-05-10T13:02:13;16.70;99.90
18506;DHT22;9382;53.242;10.438;2023-05-10T13:04:43;16.90;99.90
18506;DHT22;9382;53.242;10.438;2023-05-10T13:07:10;17.00;99.90
18506;DHT22;9382;53.242;10.438;2023-05-10T13:09:36;17.10;99.90
18506;DHT22;9382;53.242;10.438;2023-05-10T13:12:03;17.20;99.90
18506;DHT22;9382;53.242;10.438;2023-05-10T13:14:37;17.30;99.90
18506;DHT22;9382;53.242;10.438;2023-05-10T13:17:12;17.40;99.90
18506;DHT22;9382;53.242;10.438;2023-05-10T13:19:41;17.50;99.90
18506;DHT22;9382;53.242;10.438;2023-05-10T13:22:19;17.50;99.90
18506;DHT22;9382;53.242;10.438;2023-05-10T13:24:46;17.50;99.90
18506;DHT22;9382;53.242;10.438;2023-05-10T13:27:13;17.60;99.90
18506;DHT22;9382;53.242;10.438;2023-05-10T13:29:41;17.70;99.90
18506;DHT22;9382;53.242;10.438;2023-05-10T13:32:08;17.70;99.90
18506;DHT22;9382;53.242;10.438;2023-05-10T13:34:45;17.60;99.90
18506;DHT22;9382;53.242;10.438;2023-05-10T13:37:38;17.60;99.90
18506;DHT22;9382;53.242;10.438;2023-05-10T13:40:06;17.50;99.90
18506;DHT22;9382;53.242;10.438;2023-05-10T13:42:33;17.40;99.90
18506;DHT22;9382;53.242;10.438;2023-05-10T13:47:49;17.40;99.90
18506;DHT22;9382;53.242;10.438;2023-05-10T13:50:17;17.30;99.90
18506;DHT22;9382;53.242;10.438;2023-05-10T13:52:44;17.30;99.90
18506;DHT22;9382;53.242;10.438;2023-05-10T13:55:12;17.30;99.90
18506;DHT22;9382;53.242;10.438;2023-05-10T13:57:41;17.30;99.90
18506;DHT22;9382;53.242;10.438;2023-05-10T14:00:13;17.40;99.90
18506;DHT22;9382;53.242;10.438;2023-05-10T14:02:40;17.50;99.90
18506;DHT22;9382;53.242;10.438;2023-05-10T14:05:08;17.80;99.90
18506;DHT22;9382;53.242;10.438;2023-05-10T14:07:35;18.10;99.90
18506;DHT22;9382;53.242;10.438;2023-05-10T14:10:02;18.60;99.90
18506;DHT22;9382;53.242;10.438;2023-05-10T14:12:34;19.40;99.90
18506;DHT22;9382;53.242;10.438;2023-05-10T14:15:08;20.50;99.90
18506;DHT22;9382;53.242;10.438;2023-05-10T14:17:38;21.80;99.90
18506;DHT22;9382;53.242;10.438;2023-05-10T14:20:06;22.00;99.90
18506;DHT22;9382;53.242;10.438;2023-05-10T14:22:36;21.70;99.90
18506;DHT22;9382;53.242;10.438;2023-05-10T14:25:03;21.00;99.90
18506;DHT22;9382;53.242;10.438;2023-05-10T14:27:31;20.30;99.90
18506;DHT22;9382;53.242;10.438;2023-05-10T14:30:02;20.00;99.90
18506;DHT22;9382;53.242;10.438;2023-05-10T14:32:29;19.70;99.90
18506;DHT22;9382;53.242;10.438;2023-05-10T14:34:58;19.60;99.90
18506;DHT22;9382;53.242;10.438;2023-05-10T14:37:25;19.80;99.90
18506;DHT22;9382;53.242;10.438;2023-05-10T14:39:52;19.70;99.90
18506;DHT22;9382;53.242;10.438;2023-05-10T14:42:19;19.60;99.90
18506;DHT22;9382;53.242;10.438;2023-05-10T14:44:49;19.70;99.90
18506;DHT22;9382;53.242;10.438;2023-05-10T14:47:16;19.90;99.90
18506;DHT22;9382;53.242;10.438;2023-05-10T14:49:43;20.60;99.90
18506;DHT22;9382;53.242;10.438;2023-05-10T14:52:16;21.30;99.90
18506;DHT22;9382;53.242;10.438;2023-05-10T14:54:43;22.00;99.90
18506;DHT22;9382;53.242;10.438;2023-05-10T14:57:18;22.20;99.90
18506;DHT22;9382;53.242;10.438;2023-05-10T14:59:45;21.60;99.90
18506;DHT22;9382;53.242;10.438;2023-05-10T15:02:17;21.20;99.90
18506;DHT22;9382;53.242;10.438;2023-05-10T15:04:44;21.30;99.90
18506;DHT22;9382;53.242;10.438;2023-05-10T15:07:12;21.00;99.90
18506;DHT22;9382;53.242;10.438;2023-05-10T15:09:41;20.50;99.90
18506;DHT22;9382;53.242;10.438;2023-05-10T15:12:08;20.00;99.90
18506;DHT22;9382;53.242;10.438;2023-05-10T15:14:35;20.00;99.90
18506;DHT22;9382;53.242;10.438;2023-05-10T15:17:06;20.00;99.90
18506;DHT22;9382;53.242;10.438;2023-05-10T15:19:34;20.00;99.90
18506;DHT22;9382;53.242;10.438;2023-05-10T15:22:07;20.00;99.90
18506;DHT22;9382;53.242;10.438;2023-05-10T15:24:41;20.20;99.90
18506;DHT22;9382;53.242;10.438;2023-05-10T15:27:08;20.20;99.90
18506;DHT22;9382;53.242;10.438;2023-05-10T15:29:35;20.30;99.90
18506;DHT22;9382;53.242;10.438;2023-05-10T15:32:02;20.60;99.90
18506;DHT22;9382;53.242;10.438;2023-05-10T15:34:31;20.40;99.90
18506;DHT22;9382;53.242;10.438;2023-05-10T15:37:01;20.00;99.90
18506;DHT22;9382;53.242;10.438;2023-05-10T15:39:30;19.70;99.90
18506;DHT22;9382;53.242;10.438;2023-05-10T15:41:59;19.40;99.90